createdAt,value
2017-12-05T14:10:14.120Z,7.5
2017-12-05T14:11:16.627Z,7.5
2017-12-05T14:15:32.356Z,7.4
2017-12-05T14:16:34.783Z,7.3
2017-12-05T14:17:58.629Z,7.4
2017-12-05T14:20:04.599Z,7.4
2017-12-05T14:21:07.074Z,7.3
2017-12-05T14:22:08.473Z,7.3
2017-12-05T14:23:09.891Z,7.3
2017-12-05T14:24:12.311Z,7.3
2017-12-05T14:25:13.725Z,7.3
2017-12-05T14:26:15.193Z,7.3
2017-12-05T14:27:16.599Z,7.3
2017-12-05T14:28:19.097Z,7.3
2017-12-05T14:35:11.305Z,7.3
2017-12-05T14:36:12.709Z,7.2
2017-12-05T14:37:34.364Z,7.2
2017-12-05T14:38:35.770Z,7.2
2017-12-05T14:39:57.364Z,7.3
2017-12-05T14:40:58.763Z,7.2
2017-12-05T14:43:39.412Z,7.2
2017-12-05T14:44:40.813Z,7.3
2017-12-05T14:45:42.288Z,7.2
2017-12-05T14:46:43.699Z,7.3
2017-12-05T14:47:45.142Z,7.2
2017-12-05T14:48:46.547Z,7.2
2017-12-05T14:49:48.046Z,7.1
2017-12-05T14:50:49.460Z,7.2
2017-12-05T14:51:51.185Z,7.2
2017-12-05T14:52:52.517Z,7.2
2017-12-05T14:53:53.940Z,7.2
2017-12-05T14:54:55.634Z,7.2
2017-12-05T14:55:57.037Z,7.2
2017-12-05T14:56:58.527Z,7.2
2017-12-05T14:58:00.161Z,7.1
2017-12-05T14:59:01.559Z,7.1
2017-12-05T15:00:03.244Z,7.2
2017-12-05T15:01:04.652Z,7.2
2017-12-05T15:02:06.347Z,7.2
2017-12-05T15:03:07.757Z,7.2
2017-12-05T15:04:09.158Z,7.2
2017-12-05T15:05:10.872Z,7.2
2017-12-05T15:06:12.283Z,7.2
2017-12-05T15:07:13.687Z,7.2
2017-12-05T15:08:15.387Z,7.1
2017-12-05T15:09:16.789Z,7.1
2017-12-05T15:10:18.192Z,7.2
2017-12-05T15:11:19.702Z,7.1
2017-12-05T15:12:21.104Z,7.2
2017-12-05T15:13:22.533Z,7.1
2017-12-05T15:14:24.248Z,7.2
2017-12-05T15:15:25.639Z,7.1
2017-12-05T15:16:27.312Z,7.2
2017-12-05T15:17:28.718Z,7.2
2017-12-05T15:18:30.405Z,7.1
2017-12-05T15:19:31.804Z,7.1
2017-12-05T15:20:33.484Z,7.2
2017-12-05T15:21:35.294Z,7.2
2017-12-05T15:22:36.981Z,7.1
2017-12-05T15:23:38.409Z,7.1
2017-12-05T15:24:39.801Z,7.1
2017-12-05T15:25:41.302Z,7.0
2017-12-05T15:26:42.702Z,7.2
2017-12-05T15:27:44.102Z,7.2
2017-12-05T15:28:45.622Z,7.2
2017-12-05T15:29:47.020Z,7.1
2017-12-05T15:30:48.426Z,7.1
2017-12-05T15:31:49.942Z,7.1
2017-12-05T15:32:51.404Z,7.1
2017-12-05T15:33:52.812Z,7.1
2017-12-05T15:34:54.468Z,7.1
2017-12-05T15:35:55.867Z,7.0
2017-12-05T15:36:57.268Z,7.0
2017-12-05T15:37:58.683Z,7.1
2017-12-05T15:39:00.089Z,7.0
2017-12-05T15:40:01.489Z,7.1
2017-12-05T15:41:03.113Z,7.1
2017-12-05T15:42:04.555Z,7.0
2017-12-05T15:43:05.966Z,7.0
2017-12-05T15:44:07.439Z,7.0
2017-12-05T15:45:08.839Z,7.0
2017-12-05T15:46:10.520Z,7.0
2017-12-05T15:47:12.302Z,7.1
2017-12-05T15:48:13.814Z,7.1
2017-12-05T15:49:15.212Z,7.1
2017-12-05T15:50:16.895Z,7.0
2017-12-05T15:51:18.670Z,7.0
2017-12-05T15:52:20.184Z,7.1
2017-12-05T15:53:21.589Z,7.0
2017-12-05T15:54:23.268Z,7.0
2017-12-05T15:55:24.673Z,7.0
2017-12-05T15:56:26.367Z,7.0
2017-12-05T15:57:27.766Z,7.0
2017-12-05T15:58:29.172Z,7.0
2017-12-05T15:59:30.676Z,7.0
2017-12-05T16:00:32.078Z,7.0
2017-12-05T16:01:33.513Z,7.0
2017-12-05T16:02:34.997Z,7.0
2017-12-05T16:03:36.399Z,7.0
2017-12-05T16:04:37.834Z,7.0
2017-12-05T16:05:39.524Z,7.1
2017-12-05T16:06:40.925Z,7.0
2017-12-05T16:07:42.341Z,7.0
2017-12-05T16:08:43.852Z,7.0
2017-12-05T16:09:45.251Z,7.1
2017-12-05T16:10:46.656Z,7.0
2017-12-05T16:11:48.176Z,7.0
2017-12-05T16:12:49.578Z,7.1
2017-12-05T16:13:50.978Z,7.0
2017-12-05T16:14:52.495Z,7.0
2017-12-05T16:15:53.912Z,7.0
2017-12-05T16:16:55.368Z,7.0
2017-12-05T16:17:56.766Z,6.9
2017-12-05T16:18:58.172Z,7.0
2017-12-05T16:19:59.737Z,7.0
2017-12-05T16:21:01.138Z,7.0
2017-12-05T16:22:02.541Z,7.0
2017-12-05T16:23:04.010Z,6.9
2017-12-05T16:24:05.420Z,7.0
2017-12-05T16:25:06.820Z,7.0
2017-12-05T16:26:08.439Z,7.0
2017-12-05T16:27:09.837Z,7.0
2017-12-05T16:28:11.314Z,7.0
2017-12-05T16:29:12.715Z,7.0
2017-12-05T16:30:14.196Z,7.0
2017-12-05T16:31:15.613Z,7.0
2017-12-05T16:32:17.096Z,7.0
2017-12-05T16:33:18.482Z,6.9
2017-12-05T16:34:19.891Z,7.0
2017-12-05T16:35:21.398Z,7.0
2017-12-05T16:36:22.799Z,7.0
2017-12-05T16:37:24.195Z,7.0
2017-12-05T16:38:25.820Z,7.0
2017-12-05T16:39:27.216Z,7.0
2017-12-05T16:40:28.617Z,7.0
2017-12-05T16:41:30.039Z,7.0
2017-12-05T16:42:31.438Z,7.0
2017-12-05T16:43:32.844Z,6.9
2017-12-05T16:44:34.265Z,7.0
2017-12-05T16:45:35.665Z,7.0
2017-12-05T16:46:37.064Z,7.0
2017-12-05T16:47:38.580Z,6.9
2017-12-05T16:48:39.982Z,7.0
2017-12-05T16:49:41.384Z,7.0
2017-12-05T16:50:42.801Z,7.0
2017-12-05T16:51:44.206Z,7.0
2017-12-05T16:52:45.630Z,7.0
2017-12-05T16:53:47.134Z,7.0
2017-12-05T16:54:48.545Z,7.0
2017-12-05T16:55:49.999Z,7.0
2017-12-05T16:56:51.401Z,7.0
2017-12-05T16:57:52.880Z,6.9
2017-12-05T16:58:54.284Z,6.9
2017-12-05T16:59:55.759Z,7.0
2017-12-05T17:00:57.158Z,6.9
2017-12-05T17:01:58.650Z,7.0
2017-12-05T17:03:00.039Z,7.0
2017-12-05T17:04:01.529Z,6.9
2017-12-05T17:05:02.932Z,7.0
2017-12-05T17:06:04.402Z,7.0
2017-12-05T17:07:05.850Z,7.0
2017-12-05T17:08:07.306Z,6.9
2017-12-05T17:09:08.706Z,7.0
2017-12-05T17:10:10.105Z,7.0
2017-12-05T17:11:11.606Z,7.0
2017-12-05T17:12:13.008Z,7.0
2017-12-05T17:13:14.416Z,7.0
2017-12-05T17:14:15.826Z,7.0
2017-12-05T17:15:17.226Z,6.9
2017-12-05T17:16:18.628Z,6.9
2017-12-05T17:17:20.064Z,6.9
2017-12-05T17:18:21.462Z,7.0
2017-12-05T17:19:22.874Z,7.0
2017-12-05T17:20:24.375Z,7.0
2017-12-05T17:21:25.772Z,7.0
2017-12-05T17:22:27.172Z,7.0
2017-12-05T17:23:28.581Z,7.0
2017-12-05T17:24:29.980Z,6.9
2017-12-05T17:25:31.380Z,7.0
2017-12-05T17:26:33.677Z,7.0
2017-12-05T17:27:35.066Z,6.9
2017-12-05T17:28:36.464Z,7.0
2017-12-05T17:29:38.323Z,7.1
2017-12-05T17:30:39.722Z,6.8
2017-12-05T17:31:41.232Z,7.0
2017-12-05T17:32:42.649Z,6.9
2017-12-05T17:33:44.504Z,7.0
2017-12-05T17:34:45.904Z,6.9
2017-12-05T17:35:47.311Z,6.9
2017-12-05T17:36:48.742Z,7.0
2017-12-05T17:37:50.150Z,6.9
2017-12-05T17:38:51.982Z,6.9
2017-12-05T17:39:53.485Z,7.0
2017-12-05T17:40:54.884Z,7.0
2017-12-05T17:41:56.353Z,7.1
2017-12-05T17:42:57.752Z,7.0
2017-12-05T17:43:59.239Z,7.0
2017-12-05T17:45:00.645Z,7.0
2017-12-05T17:46:02.040Z,6.9
2017-12-05T17:47:03.553Z,6.9
2017-12-05T17:48:04.986Z,6.9
2017-12-05T17:49:06.777Z,6.9
2017-12-05T17:50:08.286Z,6.9
2017-12-05T17:51:09.695Z,6.9
2017-12-05T17:52:11.099Z,6.8
2017-12-05T17:53:12.607Z,6.8
2017-12-05T17:54:14.004Z,6.9
2017-12-05T17:55:15.429Z,6.9
2017-12-05T17:56:17.304Z,6.9
2017-12-05T17:57:18.716Z,6.9
2017-12-05T17:58:20.234Z,6.9
2017-12-05T17:59:21.633Z,6.9
2017-12-05T18:00:24.260Z,6.9
2017-12-05T18:01:25.653Z,6.9
2017-12-05T18:02:27.208Z,6.9
2017-12-05T18:03:28.612Z,6.9
2017-12-05T18:04:30.088Z,6.9
2017-12-05T18:05:31.534Z,6.9
2017-12-05T18:06:33.190Z,7.0
2017-12-05T18:07:34.588Z,7.0
2017-12-05T18:08:36.281Z,7.0
2017-12-05T18:09:37.681Z,6.9
2017-12-05T18:10:39.350Z,6.9
2017-12-05T18:11:40.755Z,7.0
2017-12-05T18:12:42.853Z,7.0
2017-12-05T18:13:44.256Z,7.0
2017-12-05T18:14:45.974Z,6.9
2017-12-05T18:15:47.327Z,7.0
2017-12-05T18:16:48.809Z,7.0
2017-12-05T18:17:50.206Z,6.9
2017-12-05T18:18:51.712Z,7.0
2017-12-05T18:19:53.494Z,7.0
2017-12-05T18:20:54.900Z,6.9
2017-12-05T18:21:56.802Z,7.0
2017-12-05T18:22:58.204Z,6.9
2017-12-05T18:23:59.631Z,6.9
2017-12-05T18:25:01.152Z,6.9
2017-12-05T18:26:02.555Z,6.9
2017-12-05T18:27:03.957Z,7.0
2017-12-05T18:28:05.473Z,6.9
2017-12-05T18:29:06.906Z,7.0
2017-12-05T18:30:08.269Z,6.9
2017-12-05T18:31:09.798Z,6.9
2017-12-05T18:32:11.199Z,6.8
2017-12-05T18:33:12.674Z,6.9
2017-12-05T18:34:14.072Z,7.0
2017-12-05T18:35:15.559Z,6.9
2017-12-05T18:36:16.969Z,7.0
2017-12-05T18:37:18.642Z,6.8
2017-12-05T18:38:20.042Z,6.9
2017-12-05T18:39:21.523Z,6.9
2017-12-05T18:40:22.918Z,7.0
2017-12-05T18:41:24.401Z,7.0
2017-12-05T18:42:25.796Z,7.0
2017-12-05T18:43:27.286Z,7.0
2017-12-05T18:44:28.686Z,7.0
2017-12-05T18:45:30.162Z,7.0
2017-12-05T18:46:31.566Z,7.0
2017-12-05T18:47:32.970Z,7.0
2017-12-05T18:48:34.482Z,7.0
2017-12-05T18:49:35.885Z,6.9
2017-12-05T18:50:37.285Z,7.0
2017-12-05T18:51:38.703Z,6.9
2017-12-05T18:52:40.138Z,7.0
2017-12-05T18:53:41.584Z,7.0
2017-12-05T18:54:42.986Z,6.9
2017-12-05T18:55:44.463Z,7.0
2017-12-05T18:56:45.868Z,7.0
2017-12-05T18:57:47.267Z,7.0
2017-12-05T18:58:48.789Z,7.0
2017-12-05T18:59:50.193Z,7.0
2017-12-05T19:00:51.596Z,7.0
2017-12-05T19:01:53.106Z,7.0
2017-12-05T19:02:54.503Z,7.0
2017-12-05T19:03:55.990Z,7.0
2017-12-05T19:04:57.396Z,7.0
2017-12-05T19:05:58.794Z,7.0
2017-12-05T19:07:00.212Z,7.0
2017-12-05T19:08:01.615Z,7.0
2017-12-05T19:09:03.144Z,7.0
2017-12-05T19:10:04.696Z,7.0
2017-12-05T19:11:06.097Z,7.0
2017-12-05T19:12:07.497Z,7.0
2017-12-05T19:13:08.948Z,6.9
2017-12-05T19:14:10.368Z,7.1
2017-12-05T19:15:11.834Z,7.0
2017-12-05T19:16:13.237Z,7.0
2017-12-05T19:17:14.711Z,7.0
2017-12-05T19:18:16.111Z,7.0
2017-12-05T19:19:17.591Z,7.1
2017-12-05T19:20:18.990Z,7.1
2017-12-05T19:21:22.501Z,7.0
2017-12-05T19:22:24.846Z,7.0
2017-12-05T19:23:27.965Z,7.0
2017-12-05T19:24:29.362Z,7.1
2017-12-05T19:25:30.842Z,7.0
2017-12-05T19:26:32.252Z,7.1
2017-12-05T19:27:33.654Z,7.0
2017-12-05T19:28:35.164Z,7.1
2017-12-05T19:29:36.567Z,7.0
2017-12-05T19:30:37.974Z,7.1
2017-12-05T19:31:39.495Z,7.0
2017-12-05T19:32:40.937Z,7.0
2017-12-05T19:33:42.343Z,7.0
2017-12-05T19:34:43.865Z,7.0
2017-12-05T19:35:45.306Z,7.1
2017-12-05T19:36:46.707Z,7.0
2017-12-05T19:37:48.334Z,7.0
2017-12-05T19:38:49.737Z,7.0
2017-12-05T19:39:51.150Z,7.0
2017-12-05T19:40:52.657Z,7.0
2017-12-05T19:41:54.059Z,7.1
2017-12-05T19:42:55.460Z,7.1
2017-12-05T19:43:56.975Z,7.1
2017-12-05T19:44:58.389Z,7.0
2017-12-05T19:45:59.786Z,7.0
2017-12-05T19:47:01.295Z,7.0
2017-12-05T19:48:02.694Z,7.1
2017-12-05T19:49:04.095Z,7.0
2017-12-05T19:50:05.631Z,7.0
2017-12-05T19:51:07.051Z,7.1
2017-12-05T19:52:08.459Z,7.1
2017-12-05T19:53:09.862Z,7.1
2017-12-05T19:54:11.268Z,7.1
2017-12-05T19:55:12.851Z,7.1
2017-12-05T19:56:14.253Z,7.2
2017-12-05T19:57:15.656Z,7.1
2017-12-05T19:58:17.055Z,7.1
2017-12-05T19:59:18.455Z,7.2
2017-12-05T20:00:20.022Z,7.1
2017-12-05T20:01:21.476Z,7.1
2017-12-05T20:02:22.874Z,7.0
2017-12-05T20:03:24.291Z,7.1
2017-12-05T20:04:25.786Z,7.1
2017-12-05T20:05:27.186Z,7.1
2017-12-05T20:06:28.684Z,7.1
2017-12-05T20:07:30.094Z,7.2
2017-12-05T20:08:31.747Z,7.1
2017-12-05T20:09:33.145Z,7.1
2017-12-05T20:10:34.635Z,7.1
2017-12-05T20:11:36.100Z,7.1
2017-12-05T20:12:37.503Z,7.1
2017-12-05T20:13:38.949Z,7.1
2017-12-05T20:14:40.727Z,7.1
2017-12-05T20:15:42.128Z,7.2
2017-12-05T20:16:44.647Z,7.2
2017-12-05T20:17:46.820Z,7.2
2017-12-05T20:18:48.448Z,7.2
2017-12-05T20:19:50.852Z,7.1
2017-12-05T20:20:52.308Z,7.2
2017-12-05T20:21:55.504Z,7.2
2017-12-05T20:22:56.967Z,7.0
2017-12-05T20:23:58.358Z,7.2
2017-12-05T20:24:59.820Z,7.0
2017-12-05T20:26:01.227Z,7.1
2017-12-05T20:27:02.722Z,7.1
2017-12-05T20:28:04.148Z,7.1
2017-12-05T20:29:05.557Z,7.2
2017-12-05T20:30:07.013Z,7.1
2017-12-05T20:31:08.422Z,7.1
2017-12-05T20:32:09.851Z,7.0
2017-12-05T20:33:11.257Z,7.2
2017-12-05T20:34:12.671Z,7.1
2017-12-05T20:35:14.107Z,7.2
2017-12-05T20:36:15.505Z,7.1
2017-12-05T20:37:16.993Z,7.1
2017-12-05T20:38:18.393Z,7.1
2017-12-05T20:39:19.874Z,7.0
2017-12-05T20:40:21.298Z,7.2
2017-12-05T20:41:22.702Z,7.1
2017-12-05T20:42:24.297Z,7.2
2017-12-05T20:43:25.793Z,7.2
2017-12-05T20:44:27.136Z,7.2
2017-12-05T20:45:32.551Z,7.0
2017-12-05T20:46:33.949Z,7.2
2017-12-05T20:47:36.013Z,7.1
2017-12-05T20:48:37.417Z,7.1
2017-12-05T20:49:38.886Z,7.1
2017-12-05T20:50:42.220Z,7.1
2017-12-05T20:51:47.215Z,7.1
2017-12-05T20:53:51.358Z,7.1
2017-12-05T20:54:52.650Z,7.1
2017-12-05T20:55:54.324Z,7.1
2017-12-05T20:56:55.767Z,7.1
2017-12-05T20:57:57.223Z,7.0
2017-12-05T20:58:58.723Z,7.0
2017-12-05T21:00:00.121Z,7.0
2017-12-05T21:01:01.523Z,7.0
2017-12-05T21:02:05.515Z,7.0
2017-12-05T21:03:06.908Z,7.0
2017-12-05T21:04:08.310Z,7.1
2017-12-05T21:05:09.722Z,7.0
2017-12-05T21:06:11.119Z,7.1
2017-12-05T21:07:12.520Z,7.1
2017-12-05T21:08:13.940Z,7.0
2017-12-05T21:09:15.335Z,7.0
2017-12-05T21:10:16.850Z,7.0
2017-12-05T21:11:20.581Z,7.0
2017-12-05T21:12:31.287Z,7.0
2017-12-05T21:13:33.056Z,7.0
2017-12-05T21:14:34.563Z,7.0
2017-12-05T21:15:35.969Z,7.0
2017-12-05T21:16:37.363Z,7.1
2017-12-05T21:17:38.968Z,7.0
2017-12-05T21:18:40.368Z,7.0
2017-12-05T21:19:41.767Z,7.1
2017-12-05T21:20:43.412Z,7.0
2017-12-05T21:21:44.811Z,7.0
2017-12-05T21:22:46.261Z,7.0
2017-12-05T21:23:47.731Z,7.0
2017-12-05T21:24:49.133Z,7.0
2017-12-05T21:25:50.545Z,7.0
2017-12-05T21:26:52.053Z,7.0
2017-12-05T21:27:53.450Z,7.0
2017-12-05T21:28:54.849Z,7.0
2017-12-05T21:29:56.381Z,7.0
2017-12-05T21:30:57.800Z,7.1
2017-12-05T21:31:59.203Z,7.0
2017-12-05T21:33:00.708Z,7.0
2017-12-05T21:34:02.110Z,7.1
2017-12-05T21:35:03.511Z,7.0
2017-12-05T21:36:05.030Z,7.0
2017-12-05T21:37:06.491Z,7.0
2017-12-05T21:38:07.903Z,7.0
2017-12-05T21:39:09.540Z,7.0
2017-12-05T21:40:10.944Z,7.0
2017-12-05T21:41:12.342Z,7.0
2017-12-05T21:42:13.800Z,7.0
2017-12-05T21:43:15.197Z,7.0
2017-12-05T21:44:16.618Z,7.0
2017-12-05T21:45:18.081Z,7.0
2017-12-05T21:46:19.875Z,7.0
2017-12-05T21:47:21.279Z,7.0
2017-12-05T21:48:23.031Z,7.1
2017-12-05T21:49:24.433Z,7.0
2017-12-05T21:50:25.832Z,7.0
2017-12-05T21:51:27.335Z,7.0
2017-12-05T21:52:28.737Z,7.0
2017-12-05T21:53:30.134Z,7.0
2017-12-05T21:54:31.940Z,7.0
2017-12-05T21:55:33.330Z,7.0
2017-12-05T21:56:34.759Z,7.0
2017-12-05T21:57:36.242Z,7.0
2017-12-05T21:58:37.640Z,7.0
2017-12-05T21:59:39.051Z,7.0
2017-12-05T22:00:40.510Z,7.0
2017-12-05T22:01:41.910Z,7.0
2017-12-05T22:02:43.703Z,7.0
2017-12-05T22:03:45.131Z,7.0
2017-12-05T22:04:46.532Z,7.0
2017-12-05T22:05:48.019Z,7.0
2017-12-05T22:06:49.446Z,7.0
2017-12-05T22:07:50.907Z,6.9
2017-12-05T22:08:52.309Z,7.1
2017-12-05T22:09:53.774Z,7.0
2017-12-05T22:10:55.182Z,7.0
2017-12-05T22:11:56.678Z,7.0
2017-12-05T22:12:58.077Z,7.0
2017-12-05T22:13:59.914Z,7.0
2017-12-05T22:15:01.313Z,7.0
2017-12-05T22:16:02.824Z,7.0
2017-12-05T22:17:04.247Z,7.0
2017-12-05T22:18:05.715Z,7.0
2017-12-05T22:19:07.114Z,7.0
2017-12-05T22:20:08.608Z,7.0
2017-12-05T22:21:10.012Z,6.9
2017-12-05T22:22:11.480Z,7.0
2017-12-05T22:23:12.891Z,7.0
2017-12-05T22:24:14.345Z,7.0
2017-12-05T22:25:15.772Z,7.0
2017-12-05T22:26:17.248Z,6.9
2017-12-05T22:27:18.650Z,6.9
2017-12-05T22:28:20.113Z,6.8
2017-12-05T22:29:21.513Z,6.9
2017-12-05T22:30:22.994Z,6.9
2017-12-05T22:31:24.397Z,6.9
2017-12-05T22:32:25.883Z,7.0
2017-12-05T22:33:27.280Z,7.0
2017-12-05T22:34:28.681Z,7.0
2017-12-05T22:35:30.192Z,7.0
2017-12-05T22:36:31.602Z,7.0
2017-12-05T22:37:33.392Z,7.0
2017-12-05T22:38:34.824Z,7.0
2017-12-05T22:39:36.223Z,7.0
2017-12-05T22:40:37.701Z,6.9
2017-12-05T22:41:39.104Z,7.0
2017-12-05T22:42:40.650Z,6.9
2017-12-05T22:43:42.048Z,7.0
2017-12-05T22:44:43.447Z,7.0
2017-12-05T22:45:44.905Z,7.0
2017-12-05T22:46:46.308Z,7.0
2017-12-05T22:47:47.703Z,7.0
2017-12-05T22:48:49.123Z,6.9
2017-12-05T22:49:50.529Z,7.0
2017-12-05T22:50:51.931Z,7.0
2017-12-05T22:51:53.463Z,6.9
2017-12-05T22:52:54.862Z,7.0
2017-12-05T22:53:56.259Z,7.0
2017-12-05T22:54:57.773Z,7.0
2017-12-05T22:55:59.186Z,6.9
2017-12-05T22:57:00.646Z,7.0
2017-12-05T22:58:02.426Z,7.0
2017-12-05T22:59:03.825Z,7.0
2017-12-05T23:00:05.684Z,6.9
2017-12-05T23:01:07.106Z,6.9
2017-12-05T23:02:08.499Z,6.9
2017-12-05T23:03:10.006Z,6.9
2017-12-05T23:04:11.408Z,6.9
2017-12-05T23:05:12.813Z,7.0
2017-12-05T23:06:14.332Z,6.9
2017-12-05T23:07:15.739Z,6.9
2017-12-05T23:08:17.208Z,6.9
2017-12-05T23:09:18.604Z,6.9
2017-12-05T23:10:20.010Z,7.0
2017-12-05T23:11:21.843Z,6.9
2017-12-05T23:12:23.204Z,7.0
2017-12-05T23:13:24.897Z,7.0
2017-12-05T23:14:26.365Z,6.9
2017-12-05T23:15:27.764Z,7.0
2017-12-05T23:16:29.260Z,7.0
2017-12-05T23:17:30.656Z,6.9
2017-12-05T23:18:32.159Z,6.9
2017-12-05T23:19:33.575Z,6.9
2017-12-05T23:20:35.380Z,6.9
2017-12-05T23:21:36.828Z,6.9
2017-12-05T23:22:38.295Z,7.0
2017-12-05T23:23:39.716Z,7.0
2017-12-05T23:24:41.183Z,6.9
2017-12-05T23:25:42.586Z,6.9
2017-12-05T23:26:44.068Z,6.9
2017-12-05T23:27:45.471Z,6.9
2017-12-05T23:28:46.940Z,6.9
2017-12-05T23:29:48.355Z,6.9
2017-12-05T23:30:49.750Z,6.9
2017-12-05T23:31:51.259Z,6.9
2017-12-05T23:32:52.658Z,6.8
2017-12-05T23:33:54.080Z,6.9
2017-12-05T23:34:55.594Z,6.9
2017-12-05T23:35:57.398Z,6.9
2017-12-05T23:36:58.870Z,6.9
2017-12-05T23:38:00.276Z,6.9
2017-12-05T23:39:01.749Z,6.9
2017-12-05T23:40:03.150Z,7.0
2017-12-05T23:41:04.557Z,6.9
2017-12-05T23:42:05.969Z,7.0
2017-12-05T23:43:07.374Z,6.9
2017-12-05T23:44:08.799Z,6.9
2017-12-05T23:45:10.325Z,6.9
2017-12-05T23:46:11.727Z,6.9
2017-12-05T23:47:13.230Z,6.8
2017-12-05T23:48:14.623Z,6.9
2017-12-05T23:49:16.055Z,6.9
2017-12-05T23:50:17.459Z,6.9
2017-12-05T23:51:19.240Z,6.9
2017-12-05T23:52:20.682Z,6.9
2017-12-05T23:53:22.108Z,6.9
2017-12-05T23:54:23.509Z,6.9
2017-12-05T23:55:25.775Z,6.9
2017-12-05T23:56:27.174Z,6.9
2017-12-05T23:57:28.592Z,6.9
2017-12-05T23:58:30.039Z,6.9
2017-12-05T23:59:31.441Z,6.9
